createdAt,value
2019-05-13T00:01:50.765Z,3.47
2019-05-13T00:04:25.357Z,2.80
2019-05-13T00:07:04.679Z,3.20
2019-05-13T00:09:37.770Z,3.17
2019-05-13T00:12:10.353Z,3.50
2019-05-13T00:14:43.460Z,3.40
2019-05-13T00:17:17.069Z,2.90
2019-05-13T00:19:49.625Z,3.27
2019-05-13T00:22:23.446Z,3.60
2019-05-13T00:24:54.432Z,3.33
2019-05-13T00:27:26.396Z,3.20
2019-05-13T00:29:58.461Z,4.80
2019-05-13T00:32:30.344Z,3.77
2019-05-13T00:35:03.959Z,3.10
2019-05-13T00:37:45.442Z,3.33
2019-05-13T00:40:17.480Z,3.60
2019-05-13T00:42:49.036Z,3.67
2019-05-13T00:45:21.064Z,3.43
2019-05-13T00:47:54.431Z,3.20
2019-05-13T00:50:26.277Z,3.43
2019-05-13T00:52:57.882Z,3.40
2019-05-13T00:55:31.054Z,2.97
2019-05-13T00:58:04.229Z,3.30
2019-05-13T01:00:35.803Z,3.50
2019-05-13T01:03:08.074Z,4.43
2019-05-13T01:05:39.894Z,2.87
2019-05-13T01:08:14.539Z,3.53
2019-05-13T01:10:48.956Z,2.97
2019-05-13T01:13:20.578Z,2.80
2019-05-13T01:15:54.193Z,3.63
2019-05-13T01:18:26.725Z,3.40
2019-05-13T01:20:58.425Z,2.90
2019-05-13T01:23:30.519Z,4.00
2019-05-13T01:26:03.901Z,3.43
2019-05-13T01:28:36.429Z,3.83
2019-05-13T01:31:10.234Z,3.00
2019-05-13T01:33:44.322Z,4.07
2019-05-13T01:36:17.117Z,3.23
2019-05-13T01:38:48.687Z,3.17
2019-05-13T01:41:20.188Z,3.00
2019-05-13T01:43:51.592Z,3.20
2019-05-13T01:46:25.946Z,3.43
2019-05-13T01:48:57.682Z,3.87
2019-05-13T01:51:30.007Z,4.20
2019-05-13T01:54:03.970Z,3.03
2019-05-13T01:56:35.831Z,3.10
2019-05-13T01:59:08.614Z,3.10
2019-05-13T02:01:40.125Z,3.73
2019-05-13T02:04:14.035Z,4.10
2019-05-13T02:06:44.911Z,3.00
2019-05-13T02:09:18.684Z,3.90
2019-05-13T02:11:53.821Z,3.07
2019-05-13T02:14:25.858Z,3.03
2019-05-13T02:16:59.787Z,3.50
2019-05-13T02:19:33.413Z,2.93
2019-05-13T02:22:06.396Z,3.20
2019-05-13T02:24:38.247Z,3.47
2019-05-13T02:27:09.809Z,3.37
2019-05-13T02:29:43.492Z,2.60
2019-05-13T02:32:16.219Z,3.23
2019-05-13T02:34:47.701Z,3.53
2019-05-13T02:37:22.879Z,3.00
2019-05-13T02:39:53.354Z,3.53
2019-05-13T02:42:24.917Z,2.97
2019-05-13T02:44:57.733Z,3.47
2019-05-13T02:47:33.097Z,3.50
2019-05-13T02:50:14.948Z,3.00
2019-05-13T02:52:48.032Z,3.33
2019-05-13T02:55:38.410Z,2.80
2019-05-13T02:58:12.401Z,3.33
2019-05-13T03:00:44.436Z,2.90
2019-05-13T03:03:17.771Z,3.40
2019-05-13T03:05:52.754Z,2.73
2019-05-13T03:08:39.866Z,3.00
2019-05-13T03:10:59.155Z,3.10
2019-05-13T03:13:32.763Z,2.80
2019-05-13T03:16:24.948Z,2.60
2019-05-13T03:18:56.673Z,2.83
2019-05-13T03:21:28.466Z,2.97
2019-05-13T03:24:03.044Z,2.97
2019-05-13T03:26:33.870Z,2.83
2019-05-13T03:29:05.468Z,3.53
2019-05-13T03:31:37.447Z,2.90
2019-05-13T03:34:08.680Z,2.13
2019-05-13T03:36:45.726Z,2.47
2019-05-13T03:39:16.562Z,2.60
2019-05-13T03:41:52.888Z,3.00
2019-05-13T03:44:26.624Z,3.60
2019-05-13T03:46:59.122Z,2.70
2019-05-13T03:49:34.018Z,3.40
2019-05-13T03:52:05.784Z,2.63
2019-05-13T03:54:37.628Z,3.30
2019-05-13T03:57:12.595Z,2.70
2019-05-13T03:59:44.277Z,2.60
2019-05-13T04:02:16.199Z,2.60
2019-05-13T04:04:53.421Z,3.30
2019-05-13T04:07:27.803Z,2.97
2019-05-13T04:10:03.300Z,3.07
2019-05-13T04:12:43.788Z,3.17
2019-05-13T04:15:17.787Z,3.40
2019-05-13T04:17:53.155Z,2.97
2019-05-13T04:20:26.059Z,3.17
2019-05-13T04:23:02.694Z,2.97
2019-05-13T04:25:33.089Z,3.10
2019-05-13T04:28:05.346Z,3.20
2019-05-13T04:30:36.954Z,3.67
2019-05-13T04:33:08.705Z,2.87
2019-05-13T04:35:42.548Z,4.20
2019-05-13T04:38:13.908Z,3.27
2019-05-13T04:40:45.859Z,3.60
2019-05-13T04:43:17.486Z,3.60
2019-05-13T04:45:52.239Z,3.87
2019-05-13T04:48:23.111Z,4.30
2019-05-13T04:50:54.927Z,3.67
2019-05-13T04:53:26.292Z,3.70
2019-05-13T04:56:03.622Z,2.90
2019-05-13T04:58:37.591Z,2.80
2019-05-13T05:01:48.801Z,3.17
2019-05-13T05:04:31.810Z,3.07
2019-05-13T05:07:37.039Z,3.33
2019-05-13T05:10:49.806Z,3.27
2019-05-13T05:13:46.403Z,3.30
2019-05-13T05:16:48.333Z,3.37
2019-05-13T05:19:46.687Z,2.43
2019-05-13T05:22:28.833Z,3.40
2019-05-13T05:25:42.327Z,2.87
2019-05-13T05:28:33.787Z,2.90
2019-05-13T05:31:25.661Z,2.43
2019-05-13T05:34:32.186Z,2.30
2019-05-13T05:37:28.446Z,2.50
2019-05-13T05:40:01.959Z,2.80
2019-05-13T05:42:42.980Z,2.20
2019-05-13T05:45:18.851Z,3.07
2019-05-13T05:47:52.347Z,2.63
2019-05-13T05:50:23.660Z,3.23
2019-05-13T05:52:57.279Z,2.07
2019-05-13T05:55:31.778Z,2.90
2019-05-13T05:58:04.514Z,2.70
2019-05-13T06:00:41.528Z,3.50
2019-05-13T06:03:14.009Z,3.43
2019-05-13T06:05:45.422Z,3.27
2019-05-13T06:08:18.359Z,3.10
2019-05-13T06:10:53.549Z,3.73
2019-05-13T06:13:23.400Z,3.07
2019-05-13T06:15:54.810Z,3.20
2019-05-13T06:18:26.185Z,2.40
2019-05-13T06:20:57.520Z,3.17
2019-05-13T06:23:33.559Z,3.10
2019-05-13T06:26:06.689Z,3.47
2019-05-13T06:28:38.549Z,3.10
2019-05-13T06:31:12.632Z,3.93
2019-05-13T06:33:43.449Z,3.47
2019-05-13T06:36:15.951Z,3.20
2019-05-13T06:38:51.163Z,3.30
2019-05-13T06:41:22.089Z,3.10
2019-05-13T06:43:55.670Z,3.83
2019-05-13T06:46:28.052Z,3.67
2019-05-13T06:48:59.395Z,4.10
2019-05-13T06:51:31.497Z,3.40
2019-05-13T06:54:03.485Z,2.93
2019-05-13T06:56:35.183Z,4.00
2019-05-13T06:59:11.896Z,3.70
2019-05-13T07:01:45.609Z,2.90
2019-05-13T07:04:21.934Z,3.17
2019-05-13T07:07:08.746Z,2.77
2019-05-13T07:09:32.000Z,4.30
2019-05-13T07:12:03.555Z,3.47
2019-05-13T07:14:35.843Z,3.17
2019-05-13T07:17:07.404Z,3.00
2019-05-13T07:19:41.408Z,3.20
2019-05-13T07:22:15.190Z,3.37
2019-05-13T07:24:47.176Z,3.47
2019-05-13T07:27:18.697Z,3.50
2019-05-13T07:29:51.505Z,3.37
2019-05-13T07:32:23.691Z,3.47
2019-05-13T07:34:57.235Z,3.13
2019-05-13T07:37:31.774Z,3.50
2019-05-13T07:40:13.639Z,3.27
2019-05-13T07:42:46.645Z,3.30
2019-05-13T07:45:18.396Z,3.33
2019-05-13T07:47:52.107Z,3.73
2019-05-13T07:50:26.753Z,3.87
2019-05-13T07:52:58.545Z,3.40
2019-05-13T07:55:31.706Z,3.90
2019-05-13T07:58:03.214Z,3.47
2019-05-13T08:00:35.146Z,4.73
2019-05-13T08:03:06.962Z,4.23
2019-05-13T08:05:38.608Z,2.53
2019-05-13T08:08:11.684Z,3.67
2019-05-13T08:10:46.271Z,3.10
2019-05-13T08:13:17.996Z,3.10
2019-05-13T08:15:49.397Z,3.10
2019-05-13T08:18:22.171Z,3.20
2019-05-13T08:20:55.399Z,3.07
2019-05-13T08:23:26.862Z,2.80
2019-05-13T08:25:58.848Z,3.07
2019-05-13T08:28:32.871Z,3.10
2019-05-13T08:31:04.307Z,2.90
2019-05-13T08:33:35.839Z,3.40
2019-05-13T08:36:07.306Z,3.33
2019-05-13T08:38:43.125Z,3.13
2019-05-13T08:41:18.908Z,2.80
2019-05-13T08:43:47.930Z,3.23
2019-05-13T08:46:21.688Z,3.70
2019-05-13T08:48:53.066Z,3.57
2019-05-13T08:51:24.498Z,3.60
2019-05-13T08:53:55.767Z,2.80
2019-05-13T08:56:27.317Z,3.40
2019-05-13T08:59:01.252Z,2.90
2019-05-13T09:01:34.847Z,2.97
2019-05-13T09:04:06.425Z,2.80
2019-05-13T09:06:38.156Z,3.47
2019-05-13T09:09:11.479Z,3.10
2019-05-13T09:11:46.534Z,3.40
2019-05-13T09:14:21.839Z,3.00
2019-05-13T09:16:52.793Z,3.30
2019-05-13T09:19:24.174Z,3.13
2019-05-13T09:21:55.577Z,2.90
2019-05-13T09:24:34.113Z,3.30
2019-05-13T09:27:01.925Z,2.60
2019-05-13T09:29:33.251Z,2.30
2019-05-13T09:32:04.828Z,2.40
2019-05-13T09:34:36.033Z,3.13
2019-05-13T09:37:07.459Z,2.30
2019-05-13T09:39:41.492Z,2.43
2019-05-13T09:42:13.035Z,2.50
2019-05-13T09:44:47.695Z,2.27
2019-05-13T09:47:21.534Z,2.50
2019-05-13T09:49:54.568Z,3.07
2019-05-13T09:52:26.421Z,2.23
2019-05-13T09:54:59.224Z,2.00
2019-05-13T09:57:32.167Z,2.90
2019-05-13T10:00:16.335Z,2.20
2019-05-13T10:02:51.760Z,2.40
2019-05-13T10:05:23.397Z,2.30
2019-05-13T10:07:56.730Z,1.80
2019-05-13T10:10:31.900Z,2.00
2019-05-13T10:13:11.996Z,2.20
2019-05-13T10:15:37.246Z,1.90
2019-05-13T10:18:12.638Z,1.93
2019-05-13T10:20:52.888Z,2.07
2019-05-13T10:23:27.365Z,1.80
2019-05-13T10:26:03.873Z,2.17
2019-05-13T10:28:36.114Z,2.10
2019-05-13T10:31:08.394Z,2.23
2019-05-13T10:33:41.998Z,1.90
2019-05-13T10:36:15.451Z,2.00
2019-05-13T10:38:47.134Z,2.43
2019-05-13T10:41:21.613Z,1.80
2019-05-13T10:43:53.041Z,1.87
2019-05-13T10:46:26.400Z,1.80
2019-05-13T10:49:01.929Z,2.50
2019-05-13T10:51:33.521Z,2.03
2019-05-13T10:54:04.936Z,2.00
2019-05-13T10:56:36.346Z,2.23
2019-05-13T10:59:12.372Z,1.90
2019-05-13T11:01:44.509Z,2.40
2019-05-13T11:04:16.928Z,1.93
2019-05-13T11:06:52.380Z,1.87
2019-05-13T11:09:24.772Z,2.60
2019-05-13T11:11:57.017Z,1.60
2019-05-13T11:14:28.466Z,1.50
2019-05-13T11:17:01.832Z,1.80
2019-05-13T11:19:37.105Z,2.27
2019-05-13T11:22:08.312Z,2.53
2019-05-13T11:24:42.860Z,2.40
2019-05-13T11:27:12.780Z,1.40
2019-05-13T11:29:45.164Z,1.90
2019-05-13T11:32:21.599Z,2.47
2019-05-13T11:34:53.343Z,1.90
2019-05-13T11:37:25.306Z,1.53
2019-05-13T11:39:56.382Z,1.57
2019-05-13T11:42:27.930Z,1.70
2019-05-13T11:45:01.455Z,1.87
2019-05-13T11:47:43.600Z,1.90
2019-05-13T11:50:16.739Z,1.40
2019-05-13T11:52:48.479Z,1.50
2019-05-13T11:55:23.003Z,1.30
2019-05-13T11:57:56.590Z,1.90
2019-05-13T12:01:06.824Z,1.40
2019-05-13T12:03:38.373Z,1.73
2019-05-13T12:06:09.973Z,1.60
2019-05-13T12:08:50.176Z,1.70
2019-05-13T12:11:16.622Z,1.50
2019-05-13T12:13:48.630Z,1.83
2019-05-13T12:16:22.878Z,1.90
2019-05-13T12:18:54.564Z,1.20
2019-05-13T12:21:26.215Z,1.43
2019-05-13T12:24:07.092Z,1.40
2019-05-13T12:26:33.397Z,1.30
2019-05-13T12:29:05.519Z,1.87
2019-05-13T12:31:40.692Z,1.40
2019-05-13T12:34:13.247Z,1.20
2019-05-13T12:36:49.516Z,1.53
2019-05-13T12:39:23.954Z,1.77
2019-05-13T12:41:54.377Z,1.60
2019-05-13T12:44:25.787Z,1.23
2019-05-13T12:46:57.567Z,1.43
2019-05-13T12:49:33.530Z,1.30
2019-05-13T12:52:05.195Z,2.10
2019-05-13T12:54:43.640Z,1.73
2019-05-13T12:57:17.433Z,1.30
2019-05-13T12:59:48.893Z,1.77
2019-05-13T13:02:22.596Z,1.50
2019-05-13T13:05:10.524Z,2.00
2019-05-13T13:07:26.940Z,1.63
2019-05-13T13:09:58.682Z,1.40
2019-05-13T13:12:35.987Z,1.77
2019-05-13T13:15:36.439Z,2.47
2019-05-13T13:17:47.033Z,2.30
2019-05-13T13:20:18.580Z,2.17
2019-05-13T13:22:50.255Z,2.27
2019-05-13T13:25:23.945Z,2.30
2019-05-13T13:28:15.229Z,1.60
2019-05-13T13:30:34.575Z,1.90
2019-05-13T13:33:03.065Z,1.37
2019-05-13T13:35:34.706Z,1.57
2019-05-13T13:38:09.201Z,1.77
2019-05-13T13:40:45.706Z,1.20
2019-05-13T13:43:15.917Z,1.10
2019-05-13T13:48:25.353Z,1.20
2019-05-13T13:50:56.198Z,2.17
2019-05-13T13:53:28.301Z,1.63
2019-05-13T13:56:02.171Z,2.00
2019-05-13T13:58:33.318Z,1.70
2019-05-13T14:01:12.325Z,1.40
2019-05-13T14:03:46.180Z,2.13
2019-05-13T14:07:20.568Z,1.30
2019-05-13T14:08:51.895Z,1.43
2019-05-13T14:11:23.997Z,1.60
2019-05-13T14:13:56.037Z,1.20
2019-05-13T14:16:32.498Z,1.70
2019-05-13T14:19:02.017Z,1.43
2019-05-13T14:21:34.260Z,1.77
2019-05-13T14:24:05.943Z,1.00
2019-05-13T14:26:39.171Z,1.40
2019-05-13T14:29:12.352Z,1.00
2019-05-13T14:31:45.235Z,0.80
2019-05-13T14:34:17.117Z,1.07
2019-05-13T14:36:48.811Z,1.00
2019-05-13T14:39:22.229Z,1.27
2019-05-13T14:41:53.659Z,0.90
2019-05-13T14:44:25.249Z,0.90
2019-05-13T14:46:58.161Z,1.00
2019-05-13T14:49:31.679Z,1.27
2019-05-13T14:52:03.373Z,1.20
2019-05-13T14:54:34.605Z,0.90
2019-05-13T14:57:11.700Z,1.70
2019-05-13T14:59:41.501Z,1.50
2019-05-13T15:02:13.082Z,1.40
2019-05-13T15:04:44.368Z,1.23
2019-05-13T15:07:15.840Z,1.50
2019-05-13T15:09:51.523Z,1.33
2019-05-13T15:12:23.713Z,1.50
2019-05-13T15:14:55.289Z,1.20
2019-05-13T15:17:26.512Z,1.70
2019-05-13T15:19:58.145Z,1.40
2019-05-13T15:22:32.828Z,1.40
2019-05-13T15:25:15.025Z,1.10
2019-05-13T15:27:46.524Z,0.80
2019-05-13T15:30:21.789Z,1.70
2019-05-13T15:32:54.091Z,0.83
2019-05-13T15:35:25.496Z,1.07
2019-05-13T15:37:57.966Z,1.20
2019-05-13T15:40:31.208Z,1.57
2019-05-13T15:43:04.726Z,1.00
2019-05-13T15:45:38.438Z,1.07
2019-05-13T15:48:11.570Z,0.90
2019-05-13T15:50:43.190Z,0.80
2019-05-13T15:53:14.747Z,1.20
2019-05-13T15:55:48.772Z,1.00
2019-05-13T15:58:37.687Z,1.23
2019-05-13T16:00:54.152Z,1.40
2019-05-13T16:03:26.618Z,1.67
2019-05-13T16:05:58.237Z,1.30
2019-05-13T16:08:32.035Z,1.03
2019-05-13T16:11:05.146Z,1.30
2019-05-13T16:13:37.591Z,1.60
2019-05-13T16:16:12.128Z,1.57
2019-05-13T16:18:45.442Z,1.40
2019-05-13T16:21:17.284Z,1.20
2019-05-13T16:23:51.400Z,1.60
2019-05-13T16:26:22.946Z,1.30
2019-05-13T16:28:54.488Z,1.37
2019-05-13T16:31:26.207Z,1.53
2019-05-13T16:33:57.551Z,1.50
2019-05-13T16:36:30.825Z,1.60
2019-05-13T16:39:06.126Z,1.40
2019-05-13T16:41:37.643Z,1.63
2019-05-13T16:44:11.642Z,1.30
2019-05-13T16:46:46.662Z,1.30
2019-05-13T16:49:21.153Z,1.53
2019-05-13T16:51:52.230Z,1.20
2019-05-13T16:54:24.844Z,1.37
2019-05-13T16:56:56.117Z,1.50
2019-05-13T16:59:27.881Z,1.67
2019-05-13T17:02:01.801Z,1.13
2019-05-13T17:04:33.444Z,1.23
2019-05-13T17:07:12.030Z,1.27
2019-05-13T17:09:43.654Z,1.60
2019-05-13T17:12:15.970Z,1.57
2019-05-13T17:14:47.682Z,1.90
2019-05-13T17:17:19.036Z,1.10
2019-05-13T17:19:53.600Z,1.20
2019-05-13T17:22:24.135Z,1.30
2019-05-13T17:24:55.630Z,1.53
2019-05-13T17:27:27.929Z,1.43
2019-05-13T17:30:02.217Z,1.90
2019-05-13T17:32:44.745Z,1.60
2019-05-13T17:35:18.204Z,1.50
2019-05-13T17:37:51.812Z,1.70
2019-05-13T17:40:23.580Z,1.60
2019-05-13T17:42:55.613Z,1.57
2019-05-13T17:45:27.354Z,1.20
2019-05-13T17:48:35.521Z,1.30
2019-05-13T17:51:07.633Z,1.53
2019-05-13T17:53:41.276Z,2.27
2019-05-13T17:56:12.963Z,1.50
2019-05-13T17:58:44.274Z,1.70
2019-05-13T18:01:16.099Z,2.17
2019-05-13T18:03:47.747Z,1.53
2019-05-13T18:06:19.325Z,2.13
2019-05-13T18:08:51.858Z,1.70
2019-05-13T18:11:23.496Z,2.00
2019-05-13T18:13:54.768Z,1.70
2019-05-13T18:16:26.989Z,2.00
2019-05-13T18:18:58.404Z,2.00
2019-05-13T18:21:31.869Z,2.00
2019-05-13T18:24:03.950Z,1.50
2019-05-13T18:26:35.734Z,1.43
2019-05-13T18:29:07.625Z,2.07
2019-05-13T18:31:41.810Z,1.80
2019-05-13T18:34:12.997Z,1.63
2019-05-13T18:36:44.462Z,2.00
2019-05-13T18:39:16.187Z,1.87
2019-05-13T18:41:49.446Z,1.87
2019-05-13T18:44:20.845Z,1.60
2019-05-13T18:46:52.581Z,1.77
2019-05-13T18:49:23.851Z,1.93
2019-05-13T18:51:55.177Z,1.77
2019-05-13T18:54:26.398Z,1.73
2019-05-13T18:56:57.650Z,2.40
2019-05-13T18:59:29.061Z,2.10
2019-05-13T19:02:01.518Z,1.90
2019-05-13T19:04:33.289Z,1.53
2019-05-13T19:07:07.687Z,2.07
2019-05-13T19:09:38.090Z,1.53
2019-05-13T19:12:11.637Z,1.87
2019-05-13T19:14:43.898Z,2.43
2019-05-13T19:17:15.215Z,2.20
2019-05-13T19:19:48.137Z,2.40
2019-05-13T19:22:21.427Z,1.63
2019-05-13T19:24:52.609Z,1.70
2019-05-13T19:27:24.567Z,1.47
2019-05-13T19:29:55.894Z,1.67
2019-05-13T19:32:32.207Z,1.70
2019-05-13T19:35:13.644Z,1.80
2019-05-13T19:37:45.607Z,2.00
2019-05-13T19:40:17.134Z,1.70
2019-05-13T19:42:48.517Z,1.50
2019-05-13T19:45:21.753Z,1.80
2019-05-13T19:47:53.538Z,1.73
2019-05-13T19:50:26.764Z,1.80
2019-05-13T19:52:58.587Z,1.77
2019-05-13T19:55:33.535Z,2.03
2019-05-13T19:58:04.815Z,1.90
2019-05-13T20:00:36.281Z,1.97
2019-05-13T20:03:11.540Z,2.10
2019-05-13T20:05:43.414Z,1.57
2019-05-13T20:08:14.879Z,1.87
2019-05-13T20:10:47.762Z,1.97
2019-05-13T20:13:21.656Z,2.20
2019-05-13T20:15:52.336Z,1.40
2019-05-13T20:18:26.492Z,2.40
2019-05-13T20:20:58.680Z,1.63
2019-05-13T20:23:32.292Z,2.17
2019-05-13T20:26:03.666Z,1.83
2019-05-13T20:28:35.183Z,1.97
2019-05-13T20:31:06.649Z,2.00
2019-05-13T20:33:40.159Z,1.70
2019-05-13T20:36:11.996Z,1.63
2019-05-13T20:38:44.610Z,1.93
2019-05-13T20:41:15.994Z,2.00
2019-05-13T20:43:48.225Z,1.60
2019-05-13T20:46:19.782Z,1.90
2019-05-13T20:48:52.040Z,1.80
2019-05-13T20:51:23.870Z,1.93
2019-05-13T20:53:55.549Z,1.77
2019-05-13T20:56:27.585Z,1.80
2019-05-13T20:58:59.212Z,1.83
2019-05-13T21:01:30.661Z,1.70
2019-05-13T21:04:02.380Z,2.10
2019-05-13T21:06:35.656Z,1.80
2019-05-13T21:09:13.623Z,1.70
2019-05-13T21:11:42.401Z,1.50
2019-05-13T21:14:18.095Z,1.80
2019-05-13T21:16:53.669Z,1.60
2019-05-13T21:19:27.500Z,1.77
2019-05-13T21:21:59.266Z,1.73
2019-05-13T21:24:31.925Z,2.03
2019-05-13T21:27:04.098Z,2.17
2019-05-13T21:29:37.943Z,1.87
2019-05-13T21:32:11.597Z,1.97
2019-05-13T21:34:42.689Z,1.80
2019-05-13T21:37:14.255Z,1.20
2019-05-13T21:39:47.123Z,2.10
2019-05-13T21:42:18.721Z,1.93
2019-05-13T21:44:51.421Z,2.10
2019-05-13T21:47:23.934Z,1.80
2019-05-13T21:49:55.727Z,1.97
2019-05-13T21:52:27.163Z,2.30
2019-05-13T21:54:58.675Z,2.10
2019-05-13T21:57:32.929Z,2.80
2019-05-13T22:00:14.031Z,2.37
2019-05-13T22:02:45.535Z,2.63
2019-05-13T22:05:17.194Z,2.07
2019-05-13T22:07:49.543Z,1.97
2019-05-13T22:10:21.611Z,2.63
2019-05-13T22:12:53.651Z,1.90
2019-05-13T22:15:25.281Z,2.70
2019-05-13T22:17:56.685Z,2.60
2019-05-13T22:20:28.069Z,2.37
2019-05-13T22:23:01.386Z,2.10
2019-05-13T22:25:32.893Z,2.17
2019-05-13T22:28:06.338Z,2.53
2019-05-13T22:30:38.028Z,2.40
2019-05-13T22:33:09.411Z,2.20
2019-05-13T22:35:41.768Z,2.50
2019-05-13T22:38:13.616Z,2.73
2019-05-13T22:40:45.162Z,2.23
2019-05-13T22:43:16.788Z,2.50
2019-05-13T22:45:48.151Z,3.30
2019-05-13T22:48:22.284Z,3.20
2019-05-13T22:50:54.995Z,3.30
2019-05-13T22:53:31.731Z,2.90
2019-05-13T22:56:03.360Z,2.90
2019-05-13T22:58:34.665Z,2.77
2019-05-13T23:01:06.004Z,3.00
2019-05-13T23:03:37.717Z,2.57
2019-05-13T23:06:12.081Z,2.50
2019-05-13T23:08:45.983Z,2.90
2019-05-13T23:11:17.172Z,2.43
2019-05-13T23:13:48.669Z,2.20
2019-05-13T23:16:22.095Z,3.47
2019-05-13T23:18:53.494Z,3.03
2019-05-13T23:21:25.148Z,2.63
2019-05-13T23:23:56.959Z,2.70
2019-05-13T23:26:28.365Z,3.10
2019-05-13T23:29:01.431Z,2.77
2019-05-13T23:31:33.266Z,2.33
2019-05-13T23:34:05.037Z,3.27
2019-05-13T23:36:36.361Z,2.63
2019-05-13T23:39:08.151Z,3.00
2019-05-13T23:41:41.616Z,2.53
2019-05-13T23:44:25.066Z,2.10
2019-05-13T23:46:48.217Z,3.43
2019-05-13T23:49:21.120Z,3.10
2019-05-13T23:51:52.985Z,3.17
2019-05-13T23:54:24.963Z,2.50
2019-05-13T23:56:56.541Z,2.17
2019-05-13T23:59:27.893Z,3.37
